AFW weather

Fort Worth Alliance Airport
Fort Worth, Texas, United States

Public forecast

Using degrees Fahrenheit for public forecast. Weather courtesy of forecast.io.

Current aviation weather report (METAR) for Fort Worth Alliance Airport

Retrieved 2019/10/17 11:53 UTC (40 minutes ago):

KAFW 171153Z 00000KT 10SM BKN300 09/05 A3007 RMK AO2 SLP181 T00890050 10139 20089 55007

Aviation forecast (TAF) for Fort Worth Alliance Airport

Retrieved 2019/10/17 12:22 UTC (11 minutes ago):

TAF KAFW 171120Z 1712/1812 15005KT P6SM BKN300